หน้าหลัก
METAR-TAF:

METAR-TAF

ท่าอากาศยาน :

Mexicali, เม็กซิโก

ละติจูด: 32-37-50N, ลองจิจูด: 115-14-30W, ความสูง: 22 ม.

การสังเกตสภาพอากาศปัจจุบัน

รายงานได้ทำขึ้นเมื่อ 46 นาทีที่แล้ว ณ เวลา 14:41 UTC
ลม 3 นอตจากตะวันตก/ตะวันตกเฉียงเหนือ
อุณหภูมิ 27°C
ความชื้น 23%
ความกดอากาศ 1003 hPa
ทัศนวิสัย: 16.1 กม.
ท้องฟ้าแจ่มใส

METAR: MMML 181441Z 29003KT 10SM SKC 27/04 A2963 RMK SLP034 920

เวลา: 10:27 (15:27 UTC)

การพยากรณ์

รายงานได้ทำขึ้นเมื่อ 10 ชั่วโมงและ 26 นาทีที่แล้ว ณ เวลา 05:01 UTC
การพยากรณ์มีผลตั้งแต่วันที่ 18 ณ เวลา 06 UTC จนถึงวันที่ 19 ณ เวลา 06 UTC
ลม 5 นอตจากเหนือ/ตะวันตกเฉียงเหนือ
ทัศนวิสัย: 10 กม.
ท้องฟ้าแจ่มใส
กำลังกลายเป็น
ตั้งแต่วันที่ 18 ณ เวลา 12 UTC จนถึงวันที่ 18 ณ เวลา 14 UTC
ลม 5 นอตจากใต้/ตะวันตกเฉียงใต้
จาก 18 ณ เวลา 1900 UTC
ลม 15 นอตจากตะวันตก/ตะวันตกเฉียงเหนือ
ทัศนวิสัย: 10 กม.
ท้องฟ้าแจ่มใส
จาก 19 ณ เวลา 0400 UTC
ลม 10 นอตจากเหนือ/ตะวันตกเฉียงเหนือ
ทัศนวิสัย: 10 กม.
ท้องฟ้าแจ่มใส

TAF: MMML 180501Z 1806/1906 33005KT P6SM SKC BECMG 1812/1814 20005KT FM181900 30015KT P6SM SKC FM190400 33010KT P6SM SKC

สังเกตการณ์สภาพอากาศและพยากรณ์อากาศของสนามบินมากกว่า 4000 แห่ง (รายงาน METAR และ TAF).

สถานีที่ดูได้จะแสดงไว้ด้วยจุดสีเหลืองและสีแดงบนแผนที่.

เลื่อนเมาส์ไปเหนือจุดเพื่อดูชื่อสถานี.

แล้วคลิกเพื่อดูสังเกตการณ์และการพยากรณ์สภาพอากาศ.

ในการเปลี่ยนแผนที่: คลิกที่ปุ่มสีเขียวที่มีกากบาทสีดำเพื่อซูมเข้า; ที่ปุ่มสีเขียวที่มีขีดเพื่อซูมออก; หรือที่ลูกศรสีเขียวเพื่อไปยังแผนที่ที่อยู่ติดกัน.


METAR-TAF: